Time;durP1;ratioP1;P1;durP2;ratioP2;P2;SDS_P1;SDS_P2;PMS_P1;PMS_P2;Temp;Humidity;BMP_temperature;BMP_pressure;BME280_temperature;BME280_humidity;BME280_pressure;Samples;Min_cycle;Max_cycle;Signal;HPM_P1;HPM_P2
2022/12/17 16:04:39;;;;;;;32.60;17.50;;;;;;;-4.75;79.00;100782.46;209825;1338;659233;-64
2022/12/17 16:09:43;;;;;;;43.90;19.00;;;;;;;-4.77;79.19;100791.94;209617;1300;139866;-67
2022/12/17 16:14:48;;;;;;;34.70;15.70;;;;;;;-4.78;79.06;100791.14;209247;1301;390313;-62
2022/12/17 16:19:52;;;;;;;33.60;15.90;;;;;;;-4.79;79.21;100797.67;210196;1290;140626;-62
2022/12/17 16:24:56;;;;;;;34.60;16.10;;;;;;;-4.71;79.33;100796.42;210656;1289;141178;-62
2022/12/17 16:30:02;;;;;;;36.50;18.40;;;;;;;-4.62;79.34;100798.71;210243;1298;141837;-62
2022/12/17 16:35:07;;;;;;;27.40;13.80;;;;;;;-4.59;79.47;100804.91;210027;1298;140341;-62
2022/12/17 16:40:11;;;;;;;25.30;13.30;;;;;;;-4.59;79.64;100804.21;210562;1288;139020;-65
2022/12/17 16:45:15;;;;;;;28.90;13.90;;;;;;;-4.61;79.87;100800.05;210288;1292;139406;-62
2022/12/17 16:50:19;;;;;;;31.20;15.10;;;;;;;-4.57;80.13;100802.98;210383;1286;139957;-62
2022/12/17 16:55:23;;;;;;;35.70;17.30;;;;;;;-4.48;80.00;100806.52;214276;1266;140302;-64
2022/12/17 17:00:28;;;;;;;37.10;18.00;;;;;;;-4.37;80.13;100818.02;208236;1294;141656;-64
2022/12/17 17:05:36;;;;;;;46.90;16.90;;;;;;;-4.33;80.18;100819.32;209046;1288;139896;-65
2022/12/17 17:10:40;;;;;;;43.60;17.90;;;;;;;-4.29;80.60;100827.34;209393;1295;139542;-66
2022/12/17 17:15:47;;;;;;;58.00;23.40;;;;;;;-4.29;80.61;100826.80;207871;1288;139075;-61
2022/12/17 17:20:52;;;;;;;38.80;18.20;;;;;;;-4.29;80.95;100824.05;207257;1289;141301;-63
2022/12/17 17:25:56;;;;;;;51.00;22.70;;;;;;;-4.26;81.03;100834.38;210202;1297;141143;-65
2022/12/17 17:31:04;;;;;;;37.10;16.40;;;;;;;-4.17;80.99;100843.29;208327;1288;139829;-62
2022/12/17 17:36:10;;;;;;;46.00;18.40;;;;;;;-4.07;80.94;100856.44;210308;1295;140873;-62
2022/12/17 17:41:19;;;;;;;49.70;19.80;;;;;;;-4.02;80.96;100868.24;210160;1290;140429;-62
2022/12/17 17:46:23;;;;;;;46.60;20.80;;;;;;;-4.00;81.21;100870.11;208122;1287;139111;-69
2022/12/17 17:51:33;;;;;;;38.10;21.00;;;;;;;-4.02;81.03;100875.71;207785;1288;140794;-64
2022/12/17 17:56:58;;;;;;;55.60;23.80;;;;;;;-4.05;81.04;100879.51;209978;1302;244997;-62
2022/12/17 18:02:05;;;;;;;49.80;23.50;;;;;;;-3.97;81.05;100876.70;209816;1296;233919;-66
2022/12/17 18:07:10;;;;;;;68.10;22.80;;;;;;;-3.86;81.09;100885.07;208641;1303;150793;-70
2022/12/17 18:17:53;;;;;;;38.40;19.10;;;;;;;-3.78;81.24;100896.61;210162;1303;139319;-67
2022/12/17 18:22:58;;;;;;;43.20;21.80;;;;;;;-3.81;81.06;100903.21;209774;1295;140055;-67
2022/12/17 18:28:02;;;;;;;45.30;18.90;;;;;;;-3.83;81.16;100916.80;207179;1292;139865;-67
2022/12/17 18:33:06;;;;;;;39.50;17.80;;;;;;;-3.83;80.80;100926.52;208005;1297;140041;-65
2022/12/17 18:38:11;;;;;;;47.20;21.20;;;;;;;-3.78;80.99;100936.00;207136;1297;140050;-66
2022/12/17 18:43:22;;;;;;;35.70;18.70;;;;;;;-3.76;81.08;100952.90;208974;1297;139103;-66
2022/12/17 18:48:27;;;;;;;38.20;18.00;;;;;;;-3.74;81.18;100958.52;208086;1291;140944;-65
2022/12/17 18:53:32;;;;;;;34.60;17.40;;;;;;;-3.75;81.29;100963.92;208964;1298;220180;-66
2022/12/17 18:58:37;;;;;;;32.80;17.10;;;;;;;-3.71;81.02;100965.05;208475;1297;141295;-65
2022/12/17 19:03:44;;;;;;;42.10;17.80;;;;;;;-3.62;81.21;100964.19;208347;1291;140402;-65
2022/12/17 19:08:50;;;;;;;29.30;14.20;;;;;;;-3.59;81.00;100966.96;207429;1291;140348;-65
2022/12/17 19:13:55;;;;;;;29.20;14.50;;;;;;;-3.67;80.89;100971.18;208760;1297;139772;-66
2022/12/17 19:19:02;;;;;;;26.80;12.50;;;;;;;-3.73;80.93;100982.02;207575;1298;141938;-65
2022/12/17 19:24:11;;;;;;;25.00;14.70;;;;;;;-3.75;80.79;100988.13;208791;1298;140976;-65
2022/12/17 19:29:18;;;;;;;33.80;14.00;;;;;;;-3.70;80.89;100988.27;207702;1298;140131;-64
2022/12/17 19:34:23;;;;;;;25.30;12.20;;;;;;;-3.67;80.97;100987.02;208418;1290;139461;-66
2022/12/17 19:39:27;;;;;;;25.20;10.70;;;;;;;-3.67;80.88;100990.84;208244;1297;140664;-66
2022/12/17 19:44:33;;;;;;;23.30;12.00;;;;;;;-3.69;80.99;101000.04;207902;1297;140354;-66
2022/12/17 19:49:39;;;;;;;24.40;11.40;;;;;;;-3.67;80.71;101006.66;208686;1288;141064;-67
2022/12/17 19:54:46;;;;;;;21.80;12.10;;;;;;;-3.60;80.71;101013.06;207902;1287;142624;-65
2022/12/17 19:59:51;;;;;;;28.20;12.50;;;;;;;-3.59;80.64;101021.13;208709;1296;140311;-66
2022/12/17 20:04:56;;;;;;;24.30;11.20;;;;;;;-3.60;80.65;101028.65;209881;1296;139826;-66
2022/12/17 20:10:00;;;;;;;23.70;11.40;;;;;;;-3.61;80.55;101028.44;209371;1291;139690;-66
2022/12/17 20:15:06;;;;;;;30.40;12.20;;;;;;;-3.61;80.67;101034.45;208145;1298;139588;-66
2022/12/17 20:20:11;;;;;;;27.70;14.10;;;;;;;-3.57;80.50;101040.27;209353;1297;140412;-67
2022/12/17 20:25:15;;;;;;;30.40;15.00;;;;;;;-3.50;80.36;101047.08;208362;1285;139772;-66
2022/12/17 20:30:23;;;;;;;31.60;16.00;;;;;;;-3.49;80.40;101058.61;209066;1289;139947;-67
2022/12/17 20:35:28;;;;;;;32.10;13.90;;;;;;;-3.49;80.64;101063.64;208462;1297;139303;-66
2022/12/17 20:40:33;;;;;;;42.20;19.10;;;;;;;-3.50;80.48;101067.71;207463;1291;139390;-66
2022/12/17 20:45:46;;;;;;;40.00;18.30;;;;;;;-3.46;80.64;101066.21;208180;1291;140091;-65
2022/12/17 20:50:51;;;;;;;40.50;19.70;;;;;;;-3.40;80.68;101072.55;207698;1297;139565;-66
2022/12/17 20:56:00;;;;;;;36.10;15.40;;;;;;;-3.36;80.84;101088.80;207308;1290;140610;-66
2022/12/17 21:01:13;;;;;;;37.70;17.80;;;;;;;-3.38;80.82;101090.66;207981;1297;140297;-66
2022/12/17 21:06:24;;;;;;;30.90;14.60;;;;;;;-3.43;80.60;101098.20;207785;1281;140126;-66
2022/12/17 21:11:32;;;;;;;33.70;16.00;;;;;;;-3.43;80.63;101108.56;208416;1291;141773;-67
2022/12/17 21:16:38;;;;;;;42.30;18.50;;;;;;;-3.39;80.92;101116.49;208446;1291;139948;-65
2022/12/17 21:21:45;;;;;;;38.00;17.40;;;;;;;-3.36;81.14;101121.83;208427;1288;233235;-66
2022/12/17 21:26:50;;;;;;;32.00;16.50;;;;;;;-3.37;81.11;101125.00;209007;1288;139959;-66
2022/12/17 21:31:55;;;;;;;40.90;16.60;;;;;;;-3.41;80.74;101126.35;208421;1297;139704;-66
2022/12/17 21:36:59;;;;;;;39.30;17.90;;;;;;;-3.44;80.81;101126.38;207139;1297;140281;-66
2022/12/17 21:47:27;;;;;;;34.50;17.80;;;;;;;-3.41;81.13;101135.00;209247;1296;139049;-66
2022/12/17 21:52:32;;;;;;;35.40;17.00;;;;;;;-3.45;81.08;101137.77;208914;1297;141310;-65
2022/12/17 21:57:45;;;;;;;40.40;20.10;;;;;;;-3.51;80.87;101140.78;210074;1298;139709;-66
2022/12/17 22:02:51;;;;;;;37.50;17.10;;;;;;;-3.50;80.83;101147.48;209940;1298;139534;-65
2022/12/17 22:07:58;;;;;;;38.00;18.80;;;;;;;-3.43;81.02;101152.27;209513;1291;140643;-66
2022/12/17 22:18:29;;;;;;;54.30;23.00;;;;;;;-3.51;81.00;101174.71;207808;1300;139927;-68
2022/12/17 22:23:36;;;;;;;34.60;18.80;;;;;;;-3.57;80.95;101174.43;208389;1291;139862;-66
2022/12/17 22:28:42;;;;;;;40.70;15.50;;;;;;;-3.60;80.72;101179.70;208017;1298;140577;-66
2022/12/17 22:33:49;;;;;;;38.10;19.60;;;;;;;-3.65;80.72;101191.66;207015;1291;141292;-66
2022/12/17 22:39:15;;;;;;;41.20;19.70;;;;;;;-3.73;80.83;101196.61;208346;1284;140669;-65
2022/12/17 22:44:42;;;;;;;50.30;23.60;;;;;;;-3.81;80.99;101195.27;207168;1299;245311;-65
2022/12/17 22:49:58;;;;;;;37.80;20.60;;;;;;;-3.88;81.11;101204.03;207778;1298;139924;-65
2022/12/17 22:55:06;;;;;;;49.60;21.70;;;;;;;-3.91;81.17;101210.89;207757;1299;142712;-65
2022/12/17 23:00:19;;;;;;;50.50;21.40;;;;;;;-3.92;81.30;101208.83;207893;1288;141550;-66
2022/12/17 23:05:27;;;;;;;50.40;22.00;;;;;;;-3.87;81.25;101215.95;208112;1296;140435;-65
2022/12/17 23:10:32;;;;;;;51.90;22.20;;;;;;;-3.90;81.17;101222.61;207803;1296;236716;-66
2022/12/17 23:15:38;;;;;;;48.70;20.60;;;;;;;-3.99;81.19;101230.88;207840;1297;140032;-65
2022/12/17 23:20:44;;;;;;;49.80;23.70;;;;;;;-4.05;81.06;101238.60;208341;1288;139433;-65
2022/12/17 23:25:49;;;;;;;46.70;22.80;;;;;;;-4.08;81.12;101241.90;209077;1286;140056;-65
2022/12/17 23:30:56;;;;;;;47.70;19.60;;;;;;;-4.03;81.32;101249.04;208543;1291;140888;-65
2022/12/17 23:36:06;;;;;;;45.30;20.00;;;;;;;-4.03;81.15;101250.09;208143;1296;140827;-65
2022/12/17 23:41:16;;;;;;;45.00;20.10;;;;;;;-4.02;81.38;101260.42;207877;1290;218717;-67
2022/12/17 23:46:24;;;;;;;45.60;20.20;;;;;;;-4.04;81.51;101258.67;208367;1290;223647;-65
2022/12/17 23:51:28;;;;;;;44.50;18.70;;;;;;;-4.06;81.31;101270.25;207928;1288;141623;-66
2022/12/17 23:56:34;;;;;;;54.10;23.40;;;;;;;-4.02;81.33;101280.23;209977;1287;141667;-66
